This is the latest recevied weather packets stored in our database for station/object K2YYD-2. If no packets are shown the sender has not sent any weather packets the latest 10 day(s).
| Time | Temp. | Humidity | Pressure | Rain* | Wind** | Luminosity | Snow |
|---|---|---|---|---|---|---|---|
| 1787484857 | 21.11° C | 97% | 1005.3 hPa | 2.29 mm | - | 2 W/m² | - |
| 1787484737 | 21.11° C | 97% | 1005.2 hPa | 2.29 mm | - | 3 W/m² | - |
| 1787484617 | 21.11° C | 97% | 1005 hPa | 2.03 mm | - | 8 W/m² | - |
| 1787484497 | 21.11° C | 97% | 1004.9 hPa | 2.03 mm | - | 8 W/m² | - |
| 1787484377 | 21.11° C | 97% | 1005 hPa | 2.03 mm | - | 10 W/m² | - |
| 1787484257 | 21.11° C | 97% | 1005.1 hPa | 2.03 mm | - | 11 W/m² | - |
| 1787484138 | 21.11° C | 97% | 1005 hPa | 1.78 mm | - | 11 W/m² | - |
| 1787484017 | 21.11° C | 97% | 1004.9 hPa | 1.78 mm | - | 15 W/m² | - |
| 1787483897 | 21.11° C | 97% | 1004.9 hPa | 1.52 mm | - | 18 W/m² | - |
| 1787483771 | 21.11° C | 97% | 1004.9 hPa | 1.02 mm | - | 17 W/m² | - |
| 1787483652 | 21.11° C | 97% | 1005 hPa | 0.76 mm | - | 14 W/m² | - |
| 1787483531 | 21.11° C | 97% | 1005.1 hPa | 0.51 mm | - | 14 W/m² | - |
| 1787483411 | 21.11° C | 97% | 1005 hPa | 0.51 mm | - | 18 W/m² | - |
| 1787483291 | 21.11° C | 97% | 1005 hPa | 0.25 mm | - | 16 W/m² | - |
| 1787483171 | 21.11° C | 97% | 1005.1 hPa | 0 mm | - | 13 W/m² | - |
| 1787483051 | 21.11° C | 97% | 1005.2 hPa | 0 mm | - | 15 W/m² | - |
| 1787482932 | 21.11° C | 97% | 1005.3 hPa | 0 mm | - | 18 W/m² | - |
| 1787482811 | 21.11° C | 97% | 1005.4 hPa | 0 mm | - | 12 W/m² | - |
| 1787482692 | 21.11° C | 97% | 1005.5 hPa | 0 mm | - | 7 W/m² | - |
| 1787482572 | 21.11° C | 97% | 1005.6 hPa | 0 mm | - | 4 W/m² | - |
| 1787482489 | 21.11° C | 97% | 1005.6 hPa | 0 mm | - | 4 W/m² | - |
| 1787482331 | 21.11° C | 97% | 1005.6 hPa | 0 mm | - | 4 W/m² | - |
| 1787482211 | 21.11° C | 97% | 1005.6 hPa | 0 mm | - | 6 W/m² | - |
| 1787482092 | 21.11° C | 97% | 1005.6 hPa | 0 mm | - | 7 W/m² | - |
| 1787481972 | 21.11° C | 97% | 1005.6 hPa | 0 mm | - | 10 W/m² | - |
* Rain latest hour (hover to see other rain measurements)
** Current wind speed in m/s (hover to see current wind gust speed)